Nearby METAR Reports

 

LJLJ - Ljubljana/Brnik, Slovenia
Distance from station: W 41km
Updated: 13/12/2018 22:00
Light snow, Overcast
Light snow, Overcast
 Wind from WNW
Wind: WNW 7 km/h
Temperature: -1°C
Wind Chill: -4°C
Dew Point: -2°C
Humidity: 93%
Barometer: 1017 hPa
Summary: Light Snow
Clouds: Overcast
Visibility: 10 km
Cloud details: Few Clouds 305 m
Partly cloudy 1067 m
Overcast 2286 m
2018/12/13 21:00 LJLJ 132100Z 29004KT 9999 -SN FEW010 SCT035 OVC075 M01/M02 Q1017 NOSIG
LJMB - Maribor, Slovenia
Distance from station: NE 63km
Updated: 13/12/2018 22:00
Overcast
Overcast
 Wind from N
Wind: N 9 km/h
Temperature: 0°C
Wind Chill: -3°C
Dew Point: -3°C
Humidity: 80%
Barometer: 1019 hPa
Clouds: Overcast
Visibility: 10 km
Cloud details: Overcast 792 m
2018/12/13 21:00 LJMB 132100Z 36005KT 9999 OVC026 M00/M03 Q1019
 
LJPZ - Portoroz, Slovenia
Distance from station: SW 130km
Updated: 13/12/2018 22:00
Overcast
Overcast
 Wind from E
Wind: E 7 km/h
Temperature: 4°C
Wind Chill: 2°C
Dew Point: -2°C
Humidity: 65%
Barometer: 1014 hPa
Clouds: Overcast
Visibility: 10 km
Cloud details: Overcast 1524 m
2018/12/13 21:00 LJPZ 132100Z 08004KT 330V150 9999 OVC050 04/M02 Q1014
LJCE - Cerklje, Slovenia
Distance from station: ESE 49km
Updated: 13/12/2018 22:00
Light rain, Showers, Overcast
Light rain, Showers, Overcast
 Wind from E
Wind: E 6 km/h
Temperature: 0°C
Dew Point: -2°C
Humidity: 87%
Barometer: 1019 hPa
Summary: Light rain, Showers
Clouds: Overcast
Visibility: 10 km
Cloud details: Overcast 549 m
2018/12/13 21:00 LJCE 132100Z AUTO 09003KT 9999 -SHRA OVC018/// 00/M02 Q1019
 
LDZA - Zagreb/Pleso, Croatia
Distance from station: ESE 96km
Updated: 13/12/2018 22:00
Overcast
Overcast
 Wind from ENE
Wind: ENE 13 km/h
Temperature: 1°C
Wind Chill: -3°C
Dew Point: -1°C
Humidity: 87%
Barometer: 1019 hPa
Clouds: Overcast
Visibility: 10 km
Cloud details: Mostly cloudy 305 m
Overcast 1067 m
2018/12/13 21:00 LDZA 132100Z 06007KT 020V110 9999 BKN010 OVC035 01/M01 Q1019 NOSIG
LDRI - Rijeka/Omisalj, Croatia
Distance from station: SSW 109km
Updated: 13/12/2018 22:00
Overcast
Overcast
 Wind from NE
Wind: NE 20 km/h
Temperature: 5°C
Wind Chill: 1°C
Dew Point: -4°C
Humidity: 53%
Barometer: 1014 hPa
Clouds: Overcast
Visibility: 10 km
Cloud details: Mostly cloudy 823 m
Overcast 2012 m
2018/12/13 21:00 LDRI 132100Z 05011KT 010V100 9999 BKN027 OVC066 05/M04 Q1014
 
LDPL - Pula, Croatia
Distance from station: SSW 164km
Updated: 13/12/2018 22:00
Few Clouds
Few Clouds
 Wind from ENE
Wind: ENE 28 km/h
Temperature: 5°C
Wind Chill: 1°C
Dew Point: -2°C
Humidity: 61%
Barometer: 1013 hPa
Clouds: Few Clouds
Visibility: 10 km
Cloud details: Few Clouds 1067 m
2018/12/13 21:00 LDPL 132100Z 06015KT 9999 FEW035 05/M02 Q1013 NOSIG
LOWK - Klagenfurt(Civ/M, Austria
Distance from station: NW 76km
Updated: 13/12/2018 21:50
Light snow, Showers, Overcast
Light snow, Showers, Overcast
 Wind from E
Wind: E 7 km/h
Temperature: -1°C
Wind Chill: -4°C
Dew Point: -4°C
Humidity: 80%
Barometer: 1018 hPa
Summary: Light snow, Showers
Clouds: Overcast
Visibility: 10 km
Cloud details: Partly cloudy 610 m
Overcast 2438 m
2018/12/13 20:50 LOWK 132050Z 09004KT 050V130 9999 -SHSN SCT020 OVC080 M01/M04 Q1018 NOSIG
 
LOWG - Graz (mil/Civ), Austria
Distance from station: NNE 100km
Updated: 13/12/2018 21:50
Mostly cloudy
Mostly cloudy
 Wind from E
Wind: E 7 km/h
Temperature: -1°C
Wind Chill: -4°C
Dew Point: -4°C
Humidity: 80%
Barometer: 1019 hPa
Clouds: Mostly cloudy
Visibility: 10 km
Cloud details: Few Clouds 488 m
Mostly cloudy 610 m
2018/12/13 20:50 LOWG 132050Z AUTO 10004KT 9999 FEW016 BKN020 M01/M04 Q1019 R17/19//95 NOSIG
LOWZ - Zell Am See, Austria
Distance from station: NW 211km
Updated: 31/12/2016 17:00
NOT Current
Clear
Clear
 Wind from varies
Wind: varies 4 km/h
Temperature: -4°C
Dew Point: -7°C
Humidity: 80%
Barometer: 1031 hPa
Clouds: Clear
2016/12/31 16:00 LOWZ 311600Z VRB02KT 50KM SKC M04/M07 Q1031
 
LOAN - Wr.neustadt East, Austria
Distance from station: NNE 212km
Updated: 13/12/2018 16:00
NOT Current
Mist, Mostly cloudy
Mist, Mostly cloudy
 Wind from E
Wind: E 9 km/h
Summary: Mist
Clouds: Mostly cloudy
Visibility: 4 km
Cloud details: Few Clouds 396 m
Mostly cloudy 610 m
2018/12/13 15:00 LOAN 131500Z 09005KT 4000 BR FEW013ST BKN020SC
LIPQ - Ronchi Legionari, Italy
Distance from station: SW 35km
Updated: 13/12/2018 21:50
Mostly cloudy
Mostly cloudy
 Wind from E
Wind: E 22 km/h, Gust: 43 km/h
Temperature: 5°C
Wind Chill: 1°C
Dew Point: -4°C
Humidity: 53%
Barometer: 1015 hPa
Clouds: Mostly cloudy
Visibility: 10 km
Cloud details: Mostly cloudy 1524 m
2018/12/13 20:50 LIPQ 132050Z 08012G23KT 9999 BKN050 05/M04 Q1015
 
LIVT - Trieste, Italy
Distance from station: WSW 109km
Updated: 13/12/2018 20:55
Partly cloudy
Partly cloudy
 Wind from NNE
Wind: NNE 28 km/h, Gust: 56 km/h
Temperature: 3°C
Wind Chill: -3°C
Dew Point: -1°C
Humidity: 75%
Barometer: 1015 hPa
Clouds: Partly cloudy
Visibility: 10 km
Cloud details: Partly cloudy 762 m
2018/12/13 19:55 LIVT 131955Z 03015G30KT 9999 SCT025 03/M01 Q1015
LIVO - Tarvisio, Italy
Distance from station: NNW 49km
Updated: 13/12/2018 18:55
NOT Current
Overcast
Overcast
 Wind from E
Wind: E 4 km/h
Temperature: -2°C
Dew Point: -3°C
Humidity: 93%
Barometer: 1014 hPa
Clouds: Overcast
Visibility: 10 km
Cloud details: Overcast 305 m
2018/12/13 17:55 LIVO 131755Z 10002KT 9999 OVC010 M02/M03 Q1014 RMK OVC VIS MIN 9999
 
LIPZ - Venezia/Tessera, Italy
Distance from station: WSW 217km
Updated: 13/12/2018 21:50
Clear
Clear
 Wind from N
Wind: N 11 km/h
Temperature: 1°C
Wind Chill: -2°C
Dew Point: -2°C
Humidity: 81%
Barometer: 1016 hPa
Summary: Clear
Visibility: greater than 10 km
2018/12/13 20:50 LIPZ 132050Z 01006KT CAVOK 01/M02 Q1016 NOSIG
LHSM - Balaton, Hungary
Distance from station: ENE 177km
Updated: 13/12/2018 16:45
NOT Current
Mostly cloudy
Mostly cloudy
 Wind from ENE
Wind: ENE 7 km/h
Temperature: 0°C
Wind Chill: -3°C
Dew Point: -1°C
Humidity: 93%
Barometer: 1020 hPa
Clouds: Mostly cloudy
Visibility: 10 km
Cloud details: Mostly cloudy 1219 m
2018/12/13 15:45 LHSM 131545Z 07004KT 9999 BKN040 M00/M01 Q1020